Aérodrome :
LOGIN :

S'inscrire | Disclaimer

   EN    FR    IT 

 










Légende :    VFR   VFR Marginal   IFR   IFR Intensif   IFR Très Intensif
Visi : 
Plafond : 
>= 8 km
>= 3000ft
5 à 8 km
1000 à 3000 ft
1500m à 5 km
500 à 1000 ft
800 à 1500m
200 à 500 ft
< 800m
< 200 ft
Symboles :   Orages  Brouillard  Fortes neiges  Fortes précipitations  Vent > 20 kt
SIGMETs :   Divers  Orages  Givrage  Turbulence  Onde Orograph.  Cendres Volcan.






- Altitude de l'aérodrome : 1260 ft
- Code IATA : LDE


LFBT - Tarbes / Ossun

DERNIER METAR :
  • 181830Z AUTO VRB05KT 9999 -RA FEW032/// SCT064/// BKN076/// ///CB 18/17 Q1012 BECMG BKN040

METARs EXPIRÉS :
  • 181730Z AUTO 29017G36KT 9999 2600 TSRA FEW022/// OVC038/// //////CB 21/17 Q1012 BECMG 28010KT NSW
  • 181700Z AUTO 36007KT 9999 VCTS BKN036/// BKN110/// BKN140/// ///CB 25/17 Q1010 TEMPO 28020G30KT
  • 181630Z AUTO 01010KT 330V060 9999 FEW035 26/18 Q1010 TEMPO 28020G30KT TSRA BECMG BKN025 FEW060CB
  • 181600Z AUTO 06007KT 010V110 9999 FEW033 27/18 Q1010 TEMPO 28020G30KT TSRA BECMG BKN025 FEW060CB
  • 181530Z AUTO 02008KT 9999 FEW035 SCT150 27/19 Q1010 TEMPO 28020G30KT TSRA BECMG BKN025 FEW060CB
  • 181500Z AUTO 08005KT 030V140 CAVOK 27/17 Q1011 TEMPO 28020G30KT BECMG BKN025 FEW060CB
  • 181430Z AUTO 08004KT 320V120 CAVOK 27/18 Q1011 TEMPO 28020G30KT BECMG BKN025 FEW060CB
  • 181400Z AUTO 05005KT 350V110 CAVOK 27/17 Q1011 NOSIG

TAF TAF LFBT
Valide du 18 à 18h jusqu'au 19 à 18h UTC


181700Z 1818/1918 27005KT 9999 SCT040 FEW070CB
PROB30
TEMPO 1818/1819 28020G30KT TSRA
BECMG 1820/1822 BKN040
BECMG 1822/1824 BKN008
BECMG 1903/1905 BKN016



MET'MAP, la Météo Aéronautique d'un coup d'oeil ! - Copyright ORBIFLY Décembre 2007 - Disclaimer

ORBIFLY MET'MAP TEAM :

Programmation & Développement : Alexandra Zaïnal
Sur une idée originale de : Baudouin d'Aumeries
Soutien technique & logistique : Manuel Goepfert
Assistance : Marc-Olivier Méhu




SOURCES & CREDITS :

   NOAA